aviador You're here:

PAWS Decoded Metar

WASILLA in AK, USA
Report Time2018-05-26 14:56:00
UTC Time2018-05-26 15:51:58
Flight Rules vfr VFR
Wind260° at 03 kt
W.Decomp.*RWY 21: 2.7 kt HW 1.4 kt RCW
W.Rank260° ranks 6
Current wind is below 260° avg. (4.2)
Visibility9999 m
Phenomena:N/A
Clouds:Few 050 Hf
Expected CloudBase > 1,600 ft AGL from Temp-Dew spread
CeilingNone
Temp06°C (ISA -8)
Dew Point02°C (76% RH)
AAT3.3°C
QNH1005 hPa
Density Alt-279 ft
Elevation351 ft
Report Wrong Elevation
Raw Report
PAWS 261456Z AUTO 26003KT 10SM FEW050 06/02 A2968 RMK AO2 SLP066
T00610022 57002=

Extra information for PAWS:More info

Metar Taf Metar & Taf Last 4 Metars F.Rules Stats Wind Profile Meteogram Temp Stats Airport Information Weather charts Add Link Nearby VenuesMetar ALERT Operation Metar Decoded Social comments

AIRNAV info for PAWS